createdAt,value
2023-03-01T00:03:19.193Z,9.65
2023-03-01T00:04:19.511Z,9.64
2023-03-01T00:05:20.100Z,9.68
2023-03-01T00:06:19.041Z,9.66
2023-03-01T00:07:20.543Z,9.65
2023-03-01T00:08:21.368Z,9.68
2023-03-01T00:09:20.539Z,9.71
2023-03-01T00:19:59.083Z,9.78
2023-03-01T00:20:58.975Z,9.80
2023-03-01T00:21:58.674Z,9.81
2023-03-01T00:22:58.646Z,9.80
2023-03-01T00:23:58.622Z,9.78
2023-03-01T00:24:58.613Z,9.78
2023-03-01T00:25:58.711Z,9.77
2023-03-01T00:26:58.597Z,9.81
2023-03-01T00:27:58.610Z,9.82
2023-03-01T00:28:58.712Z,9.81
2023-03-01T00:29:58.540Z,9.81
2023-03-01T00:30:58.673Z,9.84
2023-03-01T00:31:58.691Z,9.85
2023-03-01T00:32:58.525Z,9.86
2023-03-01T00:33:58.633Z,9.89
2023-03-01T00:34:58.557Z,9.89
2023-03-01T00:35:58.583Z,9.89
2023-03-01T00:36:58.608Z,9.91
2023-03-01T01:44:21.541Z,9.62
2023-03-01T01:46:21.227Z,9.62
2023-03-01T01:47:21.323Z,9.62
2023-03-01T01:48:21.106Z,9.62
2023-03-01T01:49:21.098Z,9.64
2023-03-01T01:57:23.468Z,9.64
2023-03-01T02:09:23.275Z,9.62
2023-03-01T02:10:23.537Z,9.65
2023-03-01T02:11:23.353Z,9.65
2023-03-01T02:12:23.138Z,9.70
2023-03-01T02:13:23.122Z,9.71
2023-03-01T02:14:23.153Z,9.74
2023-03-01T02:15:23.116Z,9.73
2023-03-01T02:16:23.270Z,9.77
2023-03-01T02:17:23.096Z,9.77
2023-03-01T02:23:19.619Z,9.64
2023-03-01T02:24:23.010Z,9.61
2023-03-01T02:25:23.174Z,9.64
2023-03-01T02:26:22.883Z,9.64
2023-03-01T02:27:22.970Z,9.64
2023-03-01T02:28:22.865Z,9.64
2023-03-01T02:45:57.264Z,9.81
2023-03-01T02:48:16.597Z,9.77
2023-03-01T02:49:16.871Z,9.80
2023-03-01T02:53:57.669Z,9.78
2023-03-01T02:54:58.610Z,9.77
2023-03-01T02:57:17.114Z,9.74
2023-03-01T02:58:16.906Z,9.73
2023-03-01T02:59:17.052Z,9.71
2023-03-01T03:00:16.764Z,9.73
2023-03-01T03:01:16.898Z,9.77
2023-03-01T03:02:16.781Z,9.74
2023-03-01T03:03:16.777Z,9.75
2023-03-01T03:04:16.765Z,9.73
2023-03-01T03:05:16.786Z,9.75
2023-03-01T03:06:16.965Z,9.74
2023-03-01T03:07:16.774Z,9.73
2023-03-01T03:08:16.734Z,9.73
2023-03-01T03:09:16.910Z,9.74
2023-03-01T03:10:16.695Z,9.75
2023-03-01T03:11:16.748Z,9.75
2023-03-01T03:12:16.694Z,9.78
2023-03-01T03:13:16.747Z,9.80
2023-03-01T03:14:16.731Z,9.84
2023-03-01T03:15:16.729Z,9.86
2023-03-01T03:16:16.717Z,9.91
2023-03-01T03:17:16.674Z,9.94
2023-03-01T03:18:16.671Z,9.95
2023-03-01T03:19:16.647Z,9.96
2023-03-01T03:20:16.679Z,9.99
2023-03-01T03:23:59.020Z,9.99
2023-03-01T03:24:57.020Z,9.99
2023-03-01T03:25:56.637Z,9.99
2023-03-01T03:26:56.612Z,10.02
2023-03-01T03:27:56.589Z,9.98
2023-03-01T03:28:56.649Z,9.96
2023-03-01T03:29:56.556Z,9.95
2023-03-01T03:30:56.562Z,9.94
2023-03-01T03:31:56.645Z,9.95
2023-03-01T03:32:56.575Z,9.88
2023-03-01T03:33:56.527Z,9.89
2023-03-01T03:34:56.536Z,9.85
2023-03-01T04:45:30.146Z,9.75
2023-03-01T04:46:30.360Z,9.78
2023-03-01T04:47:30.261Z,9.75
2023-03-01T04:48:29.927Z,9.71
2023-03-01T04:49:29.887Z,9.68
2023-03-01T04:50:29.870Z,9.66
2023-03-01T04:51:29.929Z,9.65
2023-03-01T04:52:29.872Z,9.64
2023-03-01T04:53:30.064Z,9.66
2023-03-01T04:54:29.907Z,9.65
2023-03-01T04:55:29.841Z,9.66
2023-03-01T04:56:30.098Z,9.68
2023-03-01T04:57:29.813Z,9.68
2023-03-01T04:58:29.845Z,9.68
2023-03-01T04:59:29.827Z,9.68
2023-03-01T05:00:29.827Z,9.71
2023-03-01T05:01:29.833Z,9.74
2023-03-01T05:02:29.873Z,9.71
2023-03-01T05:03:29.803Z,9.71
2023-03-01T05:04:29.863Z,9.74
2023-03-01T05:05:29.822Z,9.75
2023-03-01T05:06:30.126Z,9.74
2023-03-01T05:07:29.827Z,9.74
2023-03-01T05:08:29.867Z,9.75
2023-03-01T05:09:29.912Z,9.75
2023-03-01T05:10:30.003Z,9.75
2023-03-01T05:11:30.011Z,9.74
2023-03-01T05:12:30.030Z,9.73
2023-03-01T05:13:30.043Z,9.71
2023-03-01T05:14:30.103Z,9.70
2023-03-01T05:15:30.198Z,9.73
2023-03-01T05:16:30.426Z,9.73
2023-03-01T05:17:30.170Z,9.75
2023-03-01T05:18:30.217Z,9.78
2023-03-01T05:19:30.224Z,9.77
2023-03-01T05:20:30.190Z,9.77
2023-03-01T05:21:30.236Z,9.75
2023-03-01T05:22:30.312Z,9.73
2023-03-01T05:23:30.308Z,9.66
2023-03-01T05:24:30.336Z,9.59
2023-03-01T05:25:30.368Z,9.48
2023-03-01T05:26:30.366Z,9.38
2023-03-01T05:27:30.447Z,9.26
2023-03-01T05:28:30.426Z,9.23
2023-03-01T05:29:30.479Z,9.19
2023-03-01T05:30:30.480Z,9.14
2023-03-01T05:31:30.584Z,9.21
2023-03-01T05:33:30.630Z,9.31
2023-03-01T06:47:30.691Z,9.91
2023-03-01T06:48:31.003Z,9.94
2023-03-01T06:49:30.565Z,9.92
2023-03-01T06:50:30.571Z,9.92
2023-03-01T06:51:31.434Z,9.94
2023-03-01T06:52:30.413Z,9.92
2023-03-01T07:03:50.174Z,9.96
2023-03-01T07:53:15.406Z,10.37
2023-03-01T07:54:15.548Z,10.42
2023-03-01T07:55:15.091Z,10.43
2023-03-01T07:56:30.482Z,10.42
2023-03-01T07:57:14.915Z,10.46
2023-03-01T07:58:15.341Z,10.47
2023-03-01T07:59:14.882Z,10.50
2023-03-01T08:00:14.926Z,10.50
2023-03-01T08:01:15.610Z,10.53
2023-03-01T08:02:14.855Z,10.57
2023-03-01T08:03:14.861Z,10.60
2023-03-01T08:04:14.834Z,10.64
2023-03-01T08:05:14.813Z,10.70
2023-03-01T08:06:14.759Z,10.77
2023-03-01T08:07:14.781Z,10.89
2023-03-01T08:08:14.831Z,10.94
2023-03-01T08:09:14.740Z,11.03
2023-03-01T08:10:14.769Z,11.20
2023-03-01T08:11:14.761Z,11.46
2023-03-01T08:12:14.715Z,11.79
2023-03-01T08:13:15.196Z,12.19
2023-03-01T08:14:14.802Z,12.47
2023-03-01T08:15:14.724Z,12.86
2023-03-01T08:16:14.793Z,13.12
2023-03-01T08:17:14.760Z,13.23
2023-03-01T08:18:14.830Z,13.18
2023-03-01T08:19:14.798Z,13.07
2023-03-01T08:20:14.820Z,12.98
2023-03-01T08:21:14.830Z,12.87
2023-03-01T08:22:15.028Z,12.77
2023-03-01T08:24:15.012Z,12.74
2023-03-01T08:25:14.951Z,12.71
2023-03-01T08:26:14.955Z,12.70
2023-03-01T08:27:14.999Z,12.70
2023-03-01T08:29:15.137Z,12.73
2023-03-01T08:30:15.160Z,12.67
2023-03-01T08:31:15.329Z,12.71
2023-03-01T08:32:15.642Z,12.87
2023-03-01T08:34:15.320Z,13.07
2023-03-01T08:35:15.700Z,13.14
2023-03-01T08:36:15.448Z,13.09
2023-03-01T08:37:15.438Z,13.12
2023-03-01T08:58:31.187Z,15.32
2023-03-01T09:04:16.172Z,16.42
2023-03-01T09:29:29.492Z,19.39
2023-03-01T09:42:55.045Z,20.71
2023-03-01T09:43:50.844Z,20.73
2023-03-01T09:47:31.091Z,20.57
2023-03-01T09:49:50.047Z,20.54
2023-03-01T09:51:05.023Z,20.54
2023-03-01T09:51:49.656Z,20.46
2023-03-01T09:52:49.799Z,20.35
2023-03-01T09:53:49.605Z,20.35
2023-03-01T09:54:49.645Z,20.33
2023-03-01T09:55:49.586Z,20.39
2023-03-01T09:56:49.633Z,20.49
2023-03-01T09:58:49.797Z,20.67
2023-03-01T09:59:50.218Z,20.66
2023-03-01T10:00:50.036Z,20.66
2023-03-01T10:01:50.154Z,20.73
2023-03-01T10:02:50.582Z,20.80
2023-03-01T10:03:51.772Z,20.70
2023-03-01T10:04:50.127Z,20.59
2023-03-01T10:06:04.966Z,20.47
2023-03-01T10:06:49.624Z,20.46
2023-03-01T10:14:49.473Z,20.40
2023-03-01T10:15:49.570Z,20.47
2023-03-01T10:16:49.479Z,20.50
2023-03-01T10:17:49.497Z,20.54
2023-03-01T10:18:49.456Z,20.62
2023-03-01T10:19:49.459Z,20.63
2023-03-01T10:20:49.477Z,20.62
2023-03-01T10:25:49.453Z,20.59
2023-03-01T11:03:08.385Z,21.38
2023-03-01T11:15:08.407Z,21.62
2023-03-01T11:21:28.264Z,21.72
2023-03-01T11:22:27.903Z,21.78
2023-03-01T11:23:29.008Z,21.91
2023-03-01T11:25:48.010Z,21.81
2023-03-01T11:26:47.491Z,21.92
2023-03-01T11:27:47.474Z,21.95
2023-03-01T11:28:47.881Z,22.03
2023-03-01T11:29:49.026Z,22.10
2023-03-01T11:30:53.088Z,22.15
2023-03-01T11:31:57.285Z,22.13
2023-03-01T11:32:48.415Z,22.19
2023-03-01T11:33:47.327Z,22.24
2023-03-01T11:34:47.326Z,22.30
2023-03-01T11:39:06.886Z,21.97
2023-03-01T11:41:06.974Z,22.10
2023-03-01T11:42:18.068Z,22.17
2023-03-01T11:49:08.193Z,22.12
2023-03-01T11:50:07.638Z,22.10
2023-03-01T11:51:08.387Z,22.10
2023-03-01T11:53:07.106Z,22.20
2023-03-01T13:23:39.959Z,21.99
2023-03-01T13:33:39.924Z,21.20
2023-03-01T14:13:37.403Z,21.11
2023-03-01T14:22:35.278Z,20.59
2023-03-01T14:23:34.635Z,20.56
2023-03-01T14:24:34.688Z,20.52
2023-03-01T14:25:34.658Z,20.46
2023-03-01T14:26:34.614Z,20.37
2023-03-01T14:27:34.699Z,20.40
2023-03-01T14:28:34.667Z,20.30
2023-03-01T14:29:34.624Z,20.29
2023-03-01T14:30:34.624Z,20.15
2023-03-01T14:31:40.982Z,20.09
2023-03-01T14:52:34.694Z,18.48
2023-03-01T14:53:45.830Z,18.42
2023-03-01T14:54:35.669Z,18.25
2023-03-01T14:55:34.704Z,18.16
2023-03-01T14:56:34.665Z,18.13
2023-03-01T14:57:34.684Z,18.15
2023-03-01T14:58:34.855Z,18.15
2023-03-01T14:59:34.690Z,18.13
2023-03-01T15:07:34.584Z,17.58
2023-03-01T15:08:34.599Z,17.56
2023-03-01T15:09:34.810Z,17.54
2023-03-01T15:10:34.724Z,17.57
2023-03-01T15:11:35.191Z,17.43
2023-03-01T15:12:34.860Z,17.31
2023-03-01T15:13:34.839Z,17.31
2023-03-01T15:14:34.952Z,17.20
2023-03-01T16:01:54.563Z,15.76
2023-03-01T16:29:54.379Z,15.22
2023-03-01T16:30:54.407Z,15.23
2023-03-01T16:31:54.502Z,15.18
2023-03-01T16:32:54.513Z,15.13
2023-03-01T16:33:54.537Z,15.12
2023-03-01T16:34:54.546Z,15.02
2023-03-01T16:35:54.596Z,15.06
2023-03-01T17:48:13.947Z,12.36
2023-03-01T17:49:14.107Z,12.39
2023-03-01T17:50:13.907Z,12.41
2023-03-01T18:14:49.839Z,12.50
2023-03-01T19:01:13.145Z,12.03
2023-03-01T19:02:13.186Z,12.00
2023-03-01T19:03:12.931Z,11.99
2023-03-01T19:37:32.866Z,11.30
2023-03-01T19:38:32.875Z,11.30
2023-03-01T19:39:32.852Z,11.28
2023-03-01T19:40:32.832Z,11.28
2023-03-01T19:41:32.859Z,11.35
2023-03-01T19:42:32.849Z,11.35
2023-03-01T19:48:23.791Z,11.31
2023-03-01T19:49:23.594Z,11.32
2023-03-01T19:50:23.390Z,11.35
2023-03-01T20:02:57.432Z,11.39
2023-03-01T20:03:57.355Z,11.48
2023-03-01T20:09:57.107Z,11.50
2023-03-01T20:12:16.721Z,11.50
2023-03-01T20:13:16.668Z,11.51
2023-03-01T20:14:16.604Z,11.52
2023-03-01T20:15:16.580Z,11.52
2023-03-01T20:16:16.611Z,11.52
2023-03-01T20:17:16.565Z,11.50
2023-03-01T20:18:16.572Z,11.48
2023-03-01T20:19:16.543Z,11.46
2023-03-01T20:20:16.554Z,11.41
2023-03-01T20:21:24.794Z,11.42
2023-03-01T20:22:17.906Z,11.41
2023-03-01T20:23:16.548Z,11.38
2023-03-01T20:24:16.535Z,11.34
2023-03-01T20:25:16.566Z,11.34
2023-03-01T20:26:16.595Z,11.32
2023-03-01T20:27:16.507Z,11.31
2023-03-01T20:28:16.491Z,11.30
2023-03-01T20:29:16.485Z,11.30
2023-03-01T20:30:16.493Z,11.30
2023-03-01T20:31:16.518Z,11.27
2023-03-01T20:32:16.579Z,11.28
2023-03-01T20:33:16.476Z,11.25
2023-03-01T20:34:16.478Z,11.24
2023-03-01T20:35:16.433Z,11.28
2023-03-01T20:36:16.467Z,11.28
2023-03-01T20:37:16.446Z,11.34
2023-03-01T20:38:16.481Z,11.32
2023-03-01T20:39:16.581Z,11.34
2023-03-01T20:40:16.730Z,11.35
2023-03-01T20:41:16.602Z,11.34
2023-03-01T20:42:16.625Z,11.34
2023-03-01T20:43:16.602Z,11.35
2023-03-01T20:44:16.683Z,11.35
2023-03-01T20:45:16.641Z,11.37
2023-03-01T20:46:16.745Z,11.32
2023-03-01T20:47:16.732Z,11.35
2023-03-01T20:48:16.741Z,11.32
2023-03-01T20:49:16.803Z,11.32
2023-03-01T20:50:16.865Z,11.30
2023-03-01T20:51:16.882Z,11.31
2023-03-01T20:52:16.995Z,11.31
2023-03-01T20:53:17.018Z,11.28
2023-03-01T20:54:17.003Z,11.28
2023-03-01T20:55:17.077Z,11.31
2023-03-01T20:56:17.044Z,11.28
2023-03-01T20:57:17.066Z,11.30
2023-03-01T20:58:17.112Z,11.30
2023-03-01T20:59:17.129Z,11.31
2023-03-01T21:00:17.150Z,11.31
2023-03-01T21:01:17.240Z,11.25
2023-03-01T21:02:17.217Z,11.24
2023-03-01T21:03:17.240Z,11.22
2023-03-01T21:04:17.365Z,11.25
2023-03-01T21:05:17.246Z,11.27
2023-03-01T21:06:17.302Z,11.14
2023-03-01T21:07:17.262Z,11.14
2023-03-01T21:08:17.302Z,11.14
2023-03-01T21:09:17.327Z,11.10
2023-03-01T21:10:17.438Z,11.10
2023-03-01T21:11:17.510Z,11.12
2023-03-01T21:12:17.443Z,11.17
2023-03-01T21:13:17.384Z,11.21
2023-03-01T21:14:17.428Z,11.18
2023-03-01T21:15:28.330Z,11.21
2023-03-01T21:16:18.534Z,11.24
2023-03-01T21:17:17.417Z,11.24
2023-03-01T21:18:17.424Z,11.24
2023-03-01T21:19:17.438Z,11.24
2023-03-01T21:20:17.402Z,11.25
2023-03-01T21:21:17.402Z,11.25
2023-03-01T21:22:17.420Z,11.25
2023-03-01T21:23:17.379Z,11.21
2023-03-01T21:24:17.464Z,11.24
2023-03-01T21:25:17.414Z,11.25
2023-03-01T21:26:17.398Z,11.22
2023-03-01T21:27:17.404Z,11.20
2023-03-01T21:28:17.504Z,11.22
2023-03-01T21:29:17.556Z,11.20
2023-03-01T21:30:17.635Z,11.21
2023-03-01T21:31:17.715Z,11.20
2023-03-01T21:32:17.878Z,11.20
2023-03-01T21:33:17.777Z,11.21
2023-03-01T21:34:17.877Z,11.22
2023-03-01T21:35:17.958Z,11.18
2023-03-01T21:36:17.928Z,11.15
2023-03-01T21:37:17.930Z,11.15
2023-03-01T21:38:17.935Z,11.15
2023-03-01T21:39:18.022Z,11.17
2023-03-01T21:40:18.050Z,11.15
2023-03-01T21:41:18.033Z,11.11
2023-03-01T21:42:18.074Z,11.11
2023-03-01T21:43:18.112Z,11.06
2023-03-01T21:44:18.295Z,11.04
2023-03-01T21:45:18.179Z,11.04
2023-03-01T21:46:18.204Z,11.04
2023-03-01T21:47:18.284Z,11.03
2023-03-01T21:48:18.264Z,11.04
2023-03-01T21:49:18.318Z,11.04
2023-03-01T21:50:18.325Z,11.10
2023-03-01T21:51:18.424Z,11.07
2023-03-01T21:52:18.438Z,11.08
2023-03-01T21:53:18.470Z,11.06
2023-03-01T21:54:18.532Z,11.01
2023-03-01T21:55:18.613Z,10.99
2023-03-01T21:56:18.677Z,10.99
2023-03-01T21:57:18.639Z,10.96
2023-03-01T21:58:18.668Z,10.96
2023-03-01T21:59:18.766Z,10.94
2023-03-01T22:00:18.770Z,10.96
2023-03-01T22:01:18.919Z,10.96
2023-03-01T22:02:18.858Z,10.94
2023-03-01T22:03:18.918Z,10.91
2023-03-01T22:04:18.915Z,10.91
2023-03-01T22:05:18.979Z,10.89
2023-03-01T22:06:30.011Z,10.84
2023-03-01T22:07:20.033Z,10.84
2023-03-01T22:08:18.998Z,10.81
2023-03-01T22:09:19.048Z,10.79
2023-03-01T22:10:18.992Z,10.79
2023-03-01T22:11:19.009Z,10.76
2023-03-01T22:12:18.975Z,10.77
2023-03-01T22:14:39.015Z,10.71
2023-03-01T22:15:39.031Z,10.74
2023-03-01T22:16:38.859Z,10.79
2023-03-01T22:17:38.739Z,10.77
2023-03-01T22:18:38.813Z,10.76
2023-03-01T22:19:38.740Z,10.79
2023-03-01T22:20:38.764Z,10.76
2023-03-01T22:21:38.698Z,10.76
2023-03-01T22:23:59.146Z,10.67
2023-03-01T22:24:58.947Z,10.70
2023-03-01T22:25:59.150Z,10.69
2023-03-01T22:26:58.915Z,10.67
2023-03-01T22:27:58.875Z,10.70
2023-03-01T22:28:58.912Z,10.71
2023-03-01T22:29:58.841Z,10.70
2023-03-01T22:30:58.849Z,10.70
2023-03-01T22:31:58.959Z,10.70
2023-03-01T22:32:58.835Z,10.69
2023-03-01T22:33:58.830Z,10.70
2023-03-01T22:34:58.851Z,10.69
2023-03-01T22:35:58.889Z,10.69
2023-03-01T22:36:58.838Z,10.67
2023-03-01T22:37:58.809Z,10.66
2023-03-01T22:38:58.795Z,10.64
2023-03-01T22:39:58.753Z,10.64
2023-03-01T22:40:58.784Z,10.59
2023-03-01T22:41:58.764Z,10.57
2023-03-01T22:42:58.815Z,10.56
2023-03-01T22:43:58.787Z,10.55
2023-03-01T22:44:58.796Z,10.52
2023-03-01T22:45:58.770Z,10.53
2023-03-01T22:46:58.793Z,10.49
2023-03-01T22:47:58.734Z,10.52
2023-03-01T22:48:58.729Z,10.50
2023-03-01T22:49:58.732Z,10.53
2023-03-01T22:50:58.748Z,10.53
2023-03-01T22:52:00.371Z,10.53
2023-03-01T22:52:58.699Z,10.53
2023-03-01T22:53:58.766Z,10.49
2023-03-01T22:54:58.680Z,10.52
2023-03-01T22:55:58.709Z,10.50
2023-03-01T22:56:58.740Z,10.55
2023-03-01T22:57:58.818Z,10.53
2023-03-01T22:58:58.790Z,10.53
2023-03-01T22:59:58.825Z,10.55
2023-03-01T23:00:58.854Z,10.55
2023-03-01T23:01:58.892Z,10.55
2023-03-01T23:02:58.965Z,10.55
2023-03-01T23:03:58.982Z,10.56
2023-03-01T23:04:59.011Z,10.52
2023-03-01T23:05:59.006Z,10.52
2023-03-01T23:06:59.061Z,10.49
2023-03-01T23:07:59.034Z,10.50
2023-03-01T23:08:59.170Z,10.52
2023-03-01T23:09:59.152Z,10.53
2023-03-01T23:10:59.204Z,10.52
2023-03-01T23:11:59.257Z,10.52
2023-03-01T23:13:59.394Z,10.47
2023-03-01T23:39:16.948Z,10.12
